Colfax, WI (54730)

5:13 PM CST on February 09, 2016 (GMT -0600)
5 Miles SE of Colfax | | Change Station
CLOSE
Current Station
Personal Weather Station
Location: Colfax, WI
Elevation: 1115 ft
Nearby Weather Stations

Elev 1115 ft 44.96 °N, 91.67 °W | Updated 8 minutes ago

Clear
Clear
12.4 °F
Feels Like 5 °F
N
4.2
Wind Variable Wind from SSW

Today
High -- | Low -- °F
--% Chance of Precip.
Yesterday
High -- | Low -- °F
Precip. -- in
Pressure 30.05 in
Visibility 10.0 miles
Clouds Clear
Windchill 5 °F
Dew Point -0 °F
Humidity 56%
Rainfall 0.00 in
Snow Depth Not available.
7:17 AM 5:25 PM
New Moon, 2% visible
METAR KLUM 092255Z AUTO 31015G20KT 10SM CLR M09/M20 A3005 RMK AO2 T10911197
Pressure 30.05 in
Visibility 10.0 miles
Clouds Clear
Windchill 5 °F
Dew Point -0 °F
Humidity 56%
Rainfall 0.00 in
Snow Depth Not available.
7:17 AM 5:25 PM
New Moon, 2% visible
METAR KLUM 092255Z AUTO 31015G20KT 10SM CLR M09/M20 A3005 RMK AO2 T10911197

10-Day Weather Forecast

Almanac

Astronomy

Feb. 09, 2016 Rise Set
Actual Time
Civil Twilight
Nautical Twilight
Astronomical Twilight
Moon
Length of Visible Light
Length of Day
Tomorrow will be .
, % of the Moon is Illuminated

Today's Extremes

State Highs State Lows

Community

WunderPhotos

Upload Photos

1,891,728 photos uploaded!

WunderBlog® & News

Nearby

Air Quality

  Air Quality AQ Index Pollutant
Not available.

Snow Depth

Station Depth Elevation

Earthquake Activity

City Distance Mag. Time & Date
Minimum magnitude displayed is 2.5.

Coastal Water Temperatures

Place Temperature

Stations

Nearby Weather Stations

Station Location Temp. Windchill Dew Point Humidity Wind Precip. Elev Updated Type
                   

Watches & Warnings

There are currently no watches in effect.